Time;durP1;ratioP1;P1;durP2;ratioP2;P2;SDS_P1;SDS_P2;PMS_P1;PMS_P2;Temp;Humidity;BMP_temperature;BMP_pressure;BME280_temperature;BME280_humidity;BME280_pressure;Samples;Min_cycle;Max_cycle;Signal;HPM_P1;HPM_P2
2021/12/23 00:00:01;;;;;;;;;;;;;;;-3.12;64.27;101097.87;4436968;32;32667;-66
2021/12/23 00:02:34;;;;;;;;;;;;;;;-3.33;65.10;101111.41;4467243;32;33735;-66
2021/12/23 00:05:02;;;;;;;;;;;;;;;-3.27;65.02;101102.00;4464682;32;33610;-66
2021/12/23 00:07:29;;;;;;;;;;;;;;;-3.16;64.63;101099.13;4461952;32;34016;-66
2021/12/23 00:10:05;;;;;;;;;;;;;;;-2.86;63.54;101086.66;4451946;32;33874;-66
2021/12/23 00:12:37;;;;;;;;;;;;;;;-2.30;61.72;101086.41;4437910;32;35156;-66
2021/12/23 00:15:09;;;;;;;;;;;;;;;-2.09;60.85;101081.97;4466343;32;32893;-66
2021/12/23 00:17:54;;;;;;;;;;;;;;;-2.36;60.80;101083.12;4462870;32;34125;-66
2021/12/23 00:25:39;;;;;;;;;;;;;;;-2.48;61.71;101069.94;4456307;32;33208;-66
2021/12/23 00:28:06;;;;;;;;;;;;;;;-2.14;60.86;101062.78;4467455;32;34223;-66
2021/12/23 00:30:33;;;;;;;;;;;;;;;-2.24;60.99;101066.81;4466915;32;34081;-66
2021/12/23 00:33:01;;;;;;;;;;;;;;;-2.68;61.38;101075.22;4458376;32;34397;-66
2021/12/23 00:35:28;;;;;;;;;;;;;;;-2.45;60.96;101066.88;4466813;32;33397;-65
2021/12/23 00:38:01;;;;;;;;;;;;;;;-2.54;61.05;101069.22;4459821;32;34892;-66
2021/12/23 00:40:28;;;;;;;;;;;;;;;-2.62;61.41;101069.97;4466748;32;34169;-66
2021/12/23 00:42:55;;;;;;;;;;;;;;;-2.25;60.21;101059.91;4459122;32;34902;-65
2021/12/23 00:45:24;;;;;;;;;;;;;;;-2.42;60.93;101059.59;4466539;32;34257;-66
2021/12/23 00:47:51;;;;;;;;;;;;;;;-2.06;59.55;101057.84;4466863;32;34197;-66
2021/12/23 00:50:18;;;;;;;;;;;;;;;-1.99;59.06;101054.37;4461233;32;34815;-66
2021/12/23 00:52:54;;;;;;;;;;;;;;;-2.51;60.85;101058.53;4448550;32;34869;-66
2021/12/23 00:55:22;;;;;;;;;;;;;;;-2.19;59.96;101050.47;4453977;32;33564;-66
2021/12/23 00:57:49;;;;;;;;;;;;;;;-2.37;60.61;101058.50;4464744;32;34678;-66
2021/12/23 01:00:18;;;;;;;;;;;;;;;-2.80;61.04;101058.56;4467431;32;34699;-66
2021/12/23 01:02:47;;;;;;;;;;;;;;;-2.95;61.47;101056.78;4463487;32;34277;-66
2021/12/23 01:05:15;;;;;;;;;;;;;;;-2.89;61.78;101060.03;4463613;32;33277;-67
2021/12/23 01:07:42;;;;;;;;;;;;;;;-2.66;61.35;101053.50;4467377;32;34960;-66
2021/12/23 01:10:10;;;;;;;;;;;;;;;-2.86;61.41;101047.69;4467547;32;34076;-66
2021/12/23 01:12:45;;;;;;;;;;;;;;;-2.87;61.63;101041.75;4465021;32;34870;-66
2021/12/23 01:15:27;;;;;;;;;;;;;;;-2.85;61.42;101044.47;4467969;32;34016;-66
2021/12/23 01:18:06;;;;;;;;;;;;;;;-3.10;62.15;101046.63;4460459;32;34135;-66
2021/12/23 01:20:35;;;;;;;;;;;;;;;-3.33;62.83;101046.44;4446537;32;35107;-67
2021/12/23 01:23:04;;;;;;;;;;;;;;;-2.89;61.68;101039.75;4461774;32;34249;-66
2021/12/23 01:25:31;;;;;;;;;;;;;;;-2.45;60.73;101031.34;4461740;32;33040;-66
2021/12/23 01:27:59;;;;;;;;;;;;;;;-2.13;59.47;101029.06;4465565;32;34414;-66
2021/12/23 01:30:26;;;;;;;;;;;;;;;-2.38;59.92;101031.31;4463615;32;34205;-66
2021/12/23 01:32:55;;;;;;;;;;;;;;;-1.99;58.14;101028.97;4465565;32;33555;-66
2021/12/23 01:35:23;;;;;;;;;;;;;;;-2.83;60.29;101032.88;4465505;32;32932;-66
2021/12/23 01:37:50;;;;;;;;;;;;;;;-2.95;60.87;101033.97;4468169;32;32991;-66
2021/12/23 01:40:18;;;;;;;;;;;;;;;-2.46;60.06;101027.88;4454246;32;34089;-66
2021/12/23 01:42:45;;;;;;;;;;;;;;;-2.85;61.08;101036.84;4468527;32;34310;-66
2021/12/23 01:45:20;;;;;;;;;;;;;;;-3.24;61.21;101026.38;4440947;32;32691;-66
2021/12/23 01:47:48;;;;;;;;;;;;;;;-3.51;62.76;101024.00;4452419;32;34005;-66
2021/12/23 01:50:16;;;;;;;;;;;;;;;-3.36;62.45;101029.25;4464135;32;34709;-66
2021/12/23 01:52:43;;;;;;;;;;;;;;;-2.72;60.38;101019.81;4462603;32;35377;-66
2021/12/23 01:55:11;;;;;;;;;;;;;;;-2.62;60.29;101015.06;4449002;32;33288;-67
2021/12/23 01:57:39;;;;;;;;;;;;;;;-2.85;60.28;101008.97;4464756;32;33786;-66
2021/12/23 02:00:08;;;;;;;;;;;;;;;-2.69;59.83;101004.94;4448474;32;33487;-66
2021/12/23 02:02:39;;;;;;;;;;;;;;;-2.62;60.03;101004.91;4450425;26;32777;-81
2021/12/23 02:05:08;;;;;;;;;;;;;;;-3.50;61.97;101006.41;4452956;32;33225;-81
2021/12/23 02:07:35;;;;;;;;;;;;;;;-3.38;62.09;101002.84;4440751;27;34873;-64
2021/12/23 02:10:03;;;;;;;;;;;;;;;-2.72;60.57;100998.59;4447344;32;34844;-64
2021/12/23 02:12:30;;;;;;;;;;;;;;;-2.55;59.88;100995.47;4446083;32;34189;-64
2021/12/23 02:14:58;;;;;;;;;;;;;;;-2.67;58.89;100998.41;4450015;32;34139;-64
2021/12/23 02:17:25;;;;;;;;;;;;;;;-2.64;59.09;100996.22;4447087;32;34222;-64
2021/12/23 02:19:53;;;;;;;;;;;;;;;-3.18;60.67;100997.56;4447959;32;33811;-64
2021/12/23 02:22:20;;;;;;;;;;;;;;;-3.22;61.44;100994.50;4446144;32;34284;-64
2021/12/23 02:24:47;;;;;;;;;;;;;;;-2.74;60.31;100988.28;4445879;32;33493;-64
2021/12/23 02:27:15;;;;;;;;;;;;;;;-2.78;60.18;100986.13;4451074;32;33764;-64
2021/12/23 02:29:42;;;;;;;;;;;;;;;-3.11;60.17;100984.00;4451244;32;34858;-64
2021/12/23 02:32:09;;;;;;;;;;;;;;;-4.39;62.94;100993.16;4436678;32;33716;-63
2021/12/23 02:34:37;;;;;;;;;;;;;;;-3.42;61.35;100979.47;4451075;32;33447;-64
2021/12/23 02:37:07;;;;;;;;;;;;;;;-3.82;62.55;100980.69;4451432;32;33927;-63
2021/12/23 02:39:35;;;;;;;;;;;;;;;-3.54;62.10;100973.84;4439318;32;33508;-65
2021/12/23 02:42:03;;;;;;;;;;;;;;;-3.61;61.76;100967.16;4450093;32;34001;-64
2021/12/23 02:44:30;;;;;;;;;;;;;;;-4.50;63.74;100975.75;4446057;32;34218;-64
2021/12/23 02:46:57;;;;;;;;;;;;;;;-3.52;61.82;100967.34;4453215;32;34783;-64
2021/12/23 02:49:25;;;;;;;;;;;;;;;-3.45;61.83;100959.75;4452190;32;34324;-64
2021/12/23 02:51:52;;;;;;;;;;;;;;;-4.63;64.24;100969.22;4448975;32;34198;-65
2021/12/23 02:54:19;;;;;;;;;;;;;;;-4.14;63.95;100954.03;4449618;32;34125;-64
2021/12/23 02:56:46;;;;;;;;;;;;;;;-3.63;62.64;100955.03;4446821;32;34105;-65
2021/12/23 02:59:14;;;;;;;;;;;;;;;-3.69;62.36;100945.09;4451030;32;34045;-65
2021/12/23 03:01:41;;;;;;;;;;;;;;;-3.62;61.79;100947.62;4447799;32;34856;-64
2021/12/23 03:04:09;;;;;;;;;;;;;;;-3.21;60.89;100945.63;4450768;32;33173;-64
2021/12/23 03:06:36;;;;;;;;;;;;;;;-3.55;61.28;100946.75;4450111;32;34079;-65
2021/12/23 03:09:04;;;;;;;;;;;;;;;-3.86;62.19;100944.69;4452203;32;34923;-65
2021/12/23 03:11:32;;;;;;;;;;;;;;;-3.14;60.49;100938.03;4438884;32;33713;-64
2021/12/23 03:13:59;;;;;;;;;;;;;;;-3.57;60.60;100941.47;4452178;32;33450;-64
2021/12/23 03:16:30;;;;;;;;;;;;;;;-3.49;60.43;100937.31;4449286;32;34232;-65
2021/12/23 03:18:58;;;;;;;;;;;;;;;-3.38;60.09;100936.97;4452183;32;33622;-65
2021/12/23 03:21:25;;;;;;;;;;;;;;;-3.04;59.26;100935.81;4451165;32;34219;-63
2021/12/23 03:23:52;;;;;;;;;;;;;;;-3.83;60.18;100933.31;4435467;32;33144;-64
2021/12/23 03:26:20;;;;;;;;;;;;;;;-3.18;58.92;100930.78;4450585;32;32650;-65
2021/12/23 03:28:47;;;;;;;;;;;;;;;-3.60;60.15;100937.69;4449290;32;35251;-64
2021/12/23 03:31:14;;;;;;;;;;;;;;;-2.85;58.46;100927.81;4450452;32;34267;-64
2021/12/23 03:33:42;;;;;;;;;;;;;;;-4.03;61.51;100938.53;4448134;32;33143;-64
2021/12/23 03:36:09;;;;;;;;;;;;;;;-4.21;62.59;100937.22;4438928;32;34018;-65
2021/12/23 03:38:36;;;;;;;;;;;;;;;-3.45;61.45;100928.47;4450601;32;34696;-65
2021/12/23 03:41:04;;;;;;;;;;;;;;;-3.12;60.57;100926.44;4436120;32;35267;-63
2021/12/23 03:43:31;;;;;;;;;;;;;;;-3.61;60.41;100925.75;4450150;32;33245;-64
2021/12/23 03:45:58;;;;;;;;;;;;;;;-4.37;63.23;100925.97;4445177;32;34093;-64
2021/12/23 03:48:26;;;;;;;;;;;;;;;-4.45;63.97;100929.19;4449610;32;33854;-64
2021/12/23 03:50:54;;;;;;;;;;;;;;;-4.70;64.80;100933.78;4449326;32;34624;-64
2021/12/23 03:53:21;;;;;;;;;;;;;;;-4.18;64.21;100922.41;4450572;32;34246;-64
2021/12/23 03:55:48;;;;;;;;;;;;;;;-3.79;63.31;100920.28;4450181;32;32105;-64
2021/12/23 03:58:16;;;;;;;;;;;;;;;-3.27;61.93;100919.56;4452655;32;35023;-64
2021/12/23 04:00:43;;;;;;;;;;;;;;;-3.62;61.67;100921.41;4449110;32;34194;-63
2021/12/23 04:03:11;;;;;;;;;;;;;;;-4.55;64.32;100923.00;4451581;32;33902;-65
2021/12/23 04:05:38;;;;;;;;;;;;;;;-4.61;65.27;100921.37;4452105;32;34360;-65
2021/12/23 04:08:05;;;;;;;;;;;;;;;-3.86;63.57;100907.66;4451967;32;34238;-64
2021/12/23 04:10:33;;;;;;;;;;;;;;;-3.06;61.89;100903.44;4451249;32;34186;-64
2021/12/23 04:13:00;;;;;;;;;;;;;;;-3.99;62.63;100904.38;4449966;32;33391;-64
2021/12/23 04:15:27;;;;;;;;;;;;;;;-4.31;64.29;100903.94;4448409;32;34189;-63
2021/12/23 04:17:55;;;;;;;;;;;;;;;-3.92;63.63;100906.94;4426017;32;34816;-64
2021/12/23 04:20:24;;;;;;;;;;;;;;;-3.76;63.25;100895.34;4437348;32;32644;-65
2021/12/23 04:22:52;;;;;;;;;;;;;;;-3.73;63.35;100893.91;4435624;32;31843;-65
2021/12/23 04:25:20;;;;;;;;;;;;;;;-3.25;61.94;100902.91;4448707;32;34770;-63
2021/12/23 04:27:48;;;;;;;;;;;;;;;-3.81;62.20;100904.00;4438965;32;35036;-64
2021/12/23 04:30:15;;;;;;;;;;;;;;;-3.32;60.90;100893.72;4451223;32;33966;-65
2021/12/23 04:32:43;;;;;;;;;;;;;;;-4.29;63.37;100891.47;4451542;32;34213;-64
2021/12/23 04:35:10;;;;;;;;;;;;;;;-3.91;62.99;100888.47;4451485;32;33641;-64
2021/12/23 04:37:37;;;;;;;;;;;;;;;-3.85;63.32;100883.22;4452067;32;34115;-64
2021/12/23 04:40:07;;;;;;;;;;;;;;;-3.06;61.71;100886.56;4438166;32;33979;-63
2021/12/23 04:42:35;;;;;;;;;;;;;;;-3.30;62.97;100883.72;4447138;32;34092;-64
2021/12/23 04:45:02;;;;;;;;;;;;;;;-4.01;62.83;100888.09;4450191;32;34629;-64
2021/12/23 04:47:30;;;;;;;;;;;;;;;-3.92;63.07;100884.16;4452140;32;34940;-64
2021/12/23 04:49:57;;;;;;;;;;;;;;;-3.47;62.31;100880.16;4449542;32;34017;-64
2021/12/23 04:52:26;;;;;;;;;;;;;;;-2.98;61.74;100880.75;4452089;32;33267;-64
2021/12/23 04:54:53;;;;;;;;;;;;;;;-2.89;61.45;100882.56;4448972;32;34763;-64
2021/12/23 04:57:20;;;;;;;;;;;;;;;-2.87;61.79;100874.41;4449094;32;33953;-64
2021/12/23 04:59:47;;;;;;;;;;;;;;;-3.17;64.27;100881.91;4452405;32;34582;-65
2021/12/23 05:02:15;;;;;;;;;;;;;;;-3.01;64.61;100877.00;4447965;32;33391;-63
2021/12/23 05:04:42;;;;;;;;;;;;;;;-2.53;63.65;100882.41;4451722;32;34145;-64
2021/12/23 05:07:10;;;;;;;;;;;;;;;-2.32;62.41;100886.47;4452255;32;33919;-65
2021/12/23 05:09:37;;;;;;;;;;;;;;;-2.41;62.49;100881.28;4451121;32;34073;-64
2021/12/23 05:12:05;;;;;;;;;;;;;;;-2.38;62.38;100873.97;4450796;32;33257;-65
2021/12/23 05:14:32;;;;;;;;;;;;;;;-2.28;62.02;100870.84;4453432;32;34206;-64
2021/12/23 05:16:59;;;;;;;;;;;;;;;-2.24;62.49;100873.91;4454566;32;34207;-64
2021/12/23 05:19:27;;;;;;;;;;;;;;;-2.22;62.04;100872.44;4453978;32;34256;-65
2021/12/23 05:21:54;;;;;;;;;;;;;;;-2.21;62.77;100869.16;4451076;32;33019;-64
2021/12/23 05:24:21;;;;;;;;;;;;;;;-2.07;61.86;100862.19;4445514;32;34719;-65
2021/12/23 05:26:48;;;;;;;;;;;;;;;-2.22;61.93;100851.22;4450980;32;34139;-64
2021/12/23 05:29:16;;;;;;;;;;;;;;;-2.14;61.83;100862.22;4453550;32;34198;-64
2021/12/23 05:31:43;;;;;;;;;;;;;;;-2.12;62.09;100858.25;4439251;32;33358;-65
2021/12/23 05:34:10;;;;;;;;;;;;;;;-1.96;61.36;100866.81;4453912;32;33887;-64
2021/12/23 05:36:37;;;;;;;;;;;;;;;-1.96;61.23;100864.28;4451469;32;34744;-64
2021/12/23 05:39:05;;;;;;;;;;;;;;;-2.07;62.12;100872.34;4448069;32;34217;-63
2021/12/23 05:41:32;;;;;;;;;;;;;;;-2.08;62.09;100880.72;4452789;32;33572;-65
2021/12/23 05:44:00;;;;;;;;;;;;;;;-1.69;60.85;100878.25;4452522;32;34836;-65
2021/12/23 05:46:28;;;;;;;;;;;;;;;-1.64;60.49;100887.28;4448224;32;35026;-64
2021/12/23 05:48:55;;;;;;;;;;;;;;;-1.67;60.60;100876.75;4453785;32;33994;-64
2021/12/23 05:51:23;;;;;;;;;;;;;;;-1.51;60.28;100879.34;4449720;32;33009;-64
2021/12/23 05:53:50;;;;;;;;;;;;;;;-1.60;61.10;100867.44;4449441;32;35351;-64
2021/12/23 05:56:17;;;;;;;;;;;;;;;-1.60;61.20;100869.97;4445959;32;33886;-64
2021/12/23 05:58:44;;;;;;;;;;;;;;;-1.63;60.96;100869.62;4449645;32;33146;-64
2021/12/23 06:01:12;;;;;;;;;;;;;;;-1.62;61.35;100865.47;4450813;32;34047;-64
2021/12/23 06:03:40;;;;;;;;;;;;;;;-2.05;62.96;100856.56;4452210;32;34025;-64
2021/12/23 06:06:07;;;;;;;;;;;;;;;-2.01;62.99;100852.72;4452505;32;33975;-65
2021/12/23 06:08:39;;;;;;;;;;;;;;;-1.62;61.94;100862.94;4452479;32;34110;-64
2021/12/23 06:11:07;;;;;;;;;;;;;;;-1.65;62.07;100852.44;4449012;32;34080;-64
2021/12/23 06:13:34;;;;;;;;;;;;;;;-1.67;62.16;100857.34;4452731;32;33805;-64
2021/12/23 06:16:04;;;;;;;;;;;;;;;-1.65;61.95;100855.88;4450820;32;33432;-66
2021/12/23 06:18:31;;;;;;;;;;;;;;;-1.45;61.54;100855.53;4453024;32;33914;-66
2021/12/23 06:20:59;;;;;;;;;;;;;;;-1.68;61.81;100853.00;4452159;32;33485;-64
2021/12/23 06:23:26;;;;;;;;;;;;;;;-1.45;61.20;100855.53;4449934;32;34211;-66
2021/12/23 06:25:53;;;;;;;;;;;;;;;-1.27;60.57;100860.78;4451889;32;34901;-64
2021/12/23 06:28:21;;;;;;;;;;;;;;;-1.60;61.30;100851.31;4449943;32;34316;-66
2021/12/23 06:30:48;;;;;;;;;;;;;;;-1.70;61.66;100849.41;4449404;32;33459;-64
2021/12/23 06:33:15;;;;;;;;;;;;;;;-1.67;61.75;100843.75;4449655;32;35152;-66
2021/12/23 06:35:42;;;;;;;;;;;;;;;-1.56;61.37;100845.81;4453181;32;34154;-65
2021/12/23 06:38:10;;;;;;;;;;;;;;;-1.59;61.40;100848.91;4453310;32;33960;-64
2021/12/23 06:40:39;;;;;;;;;;;;;;;-1.50;60.89;100846.47;4446869;32;33761;-64
2021/12/23 06:43:06;;;;;;;;;;;;;;;-1.45;60.70;100845.34;4446516;32;33942;-64
2021/12/23 06:45:34;;;;;;;;;;;;;;;-1.02;59.52;100844.88;4436976;32;34368;-64
2021/12/23 06:48:02;;;;;;;;;;;;;;;-1.25;60.01;100849.16;4435579;32;31963;-64
2021/12/23 06:50:29;;;;;;;;;;;;;;;-1.33;60.54;100849.94;4451344;32;33623;-64
2021/12/23 06:52:58;;;;;;;;;;;;;;;-1.10;59.41;100840.63;4448344;32;33572;-64
2021/12/23 06:55:25;;;;;;;;;;;;;;;-1.11;60.03;100841.34;4436220;32;34972;-64
2021/12/23 06:57:56;;;;;;;;;;;;;;;-1.09;59.87;100851.69;4450568;32;34739;-64
2021/12/23 07:00:25;;;;;;;;;;;;;;;-1.18;60.42;100851.59;4430753;32;30204;-63
2021/12/23 07:02:53;;;;;;;;;;;;;;;-1.10;60.72;100844.78;4447182;32;34189;-63
2021/12/23 07:05:22;;;;;;;;;;;;;;;-0.80;59.54;100852.25;4445383;32;34922;-63
2021/12/23 07:07:55;;;;;;;;;;;;;;;-0.96;60.15;100848.84;4449939;32;34280;-64
2021/12/23 07:10:26;;;;;;;;;;;;;;;-0.91;59.95;100837.50;4449769;32;32743;-65
2021/12/23 07:12:54;;;;;;;;;;;;;;;-0.72;59.71;100838.69;4435284;32;32558;-65
2021/12/23 07:15:23;;;;;;;;;;;;;;;-0.83;59.97;100836.66;4449061;32;34259;-64
2021/12/23 07:17:51;;;;;;;;;;;;;;;-0.48;59.26;100836.97;4432595;32;34151;-65
2021/12/23 07:20:19;;;;;;;;;;;;;;;-0.58;59.64;100840.16;4450168;32;33563;-66
2021/12/23 07:22:46;;;;;;;;;;;;;;;-0.47;59.26;100844.72;4451378;32;32667;-64
2021/12/23 07:25:14;;;;;;;;;;;;;;;-0.86;60.70;100832.16;4451451;32;34198;-65
2021/12/23 07:27:41;;;;;;;;;;;;;;;-0.77;60.42;100834.78;4436090;32;33782;-65
2021/12/23 07:30:09;;;;;;;;;;;;;;;-0.68;60.40;100835.72;4452662;32;32617;-65
2021/12/23 07:32:37;;;;;;;;;;;;;;;-0.45;59.97;100832.16;4448161;32;34456;-64
2021/12/23 07:35:06;;;;;;;;;;;;;;;-0.36;59.39;100837.34;4444569;32;34126;-65
2021/12/23 07:37:35;;;;;;;;;;;;;;;-0.36;59.78;100837.34;4447674;32;33209;-65
2021/12/23 07:40:03;;;;;;;;;;;;;;;-0.42;60.26;100833.41;4446408;32;33338;-64
2021/12/23 07:42:32;;;;;;;;;;;;;;;-0.22;59.69;100837.09;4448457;32;34193;-64
2021/12/23 07:45:01;;;;;;;;;;;;;;;0.04;58.88;100831.25;4447370;32;35006;-64
2021/12/23 07:47:31;;;;;;;;;;;;;;;0.07;59.27;100822.28;4434579;32;34031;-65
2021/12/23 07:49:58;;;;;;;;;;;;;;;0.22;58.37;100822.06;4450954;32;33059;-64
2021/12/23 07:52:26;;;;;;;;;;;;;;;0.32;58.01;100819.69;4437683;32;34115;-64
2021/12/23 07:54:53;;;;;;;;;;;;;;;0.17;58.36;100814.84;4448371;32;33722;-65
2021/12/23 07:57:20;;;;;;;;;;;;;;;-0.10;59.27;100807.81;4452102;32;34159;-65
2021/12/23 07:59:48;;;;;;;;;;;;;;;-0.07;59.15;100813.22;4449515;32;33257;-64
2021/12/23 08:02:15;;;;;;;;;;;;;;;0.08;58.51;100813.91;4450226;32;34628;-63
2021/12/23 08:04:46;;;;;;;;;;;;;;;0.19;58.46;100807.34;4448463;32;34180;-65
2021/12/23 08:07:13;;;;;;;;;;;;;;;0.26;57.98;100803.78;4445456;32;34866;-64
2021/12/23 08:09:40;;;;;;;;;;;;;;;0.14;57.98;100803.44;4452095;32;33345;-65
2021/12/23 08:12:08;;;;;;;;;;;;;;;0.03;58.27;100792.16;4432047;32;33426;-64
2021/12/23 08:14:35;;;;;;;;;;;;;;;0.33;57.94;100796.03;4447360;32;34920;-65
2021/12/23 08:17:20;;;;;;;;;;;;;;;0.26;57.58;100791.94;4436499;32;32280;-63
2021/12/23 08:19:47;;;;;;;;;;;;;;;0.64;56.58;100788.88;4439908;32;34144;-65
2021/12/23 08:22:15;;;;;;;;;;;;;;;0.26;57.83;100788.50;4436504;32;33517;-63
2021/12/23 08:24:42;;;;;;;;;;;;;;;0.34;57.62;100792.72;4447880;32;34183;-65
2021/12/23 08:27:09;;;;;;;;;;;;;;;0.40;57.69;100793.31;4448364;32;34170;-65
2021/12/23 08:29:37;;;;;;;;;;;;;;;0.62;56.65;100787.81;4438659;32;32836;-65
2021/12/23 08:32:05;;;;;;;;;;;;;;;0.45;57.33;100775.97;4450583;32;34578;-65
2021/12/23 08:34:35;;;;;;;;;;;;;;;0.39;57.74;100781.34;4444212;32;34031;-65
2021/12/23 08:37:02;;;;;;;;;;;;;;;0.44;56.83;100780.13;4450768;32;34804;-65
2021/12/23 08:39:29;;;;;;;;;;;;;;;0.72;56.20;100777.81;4435113;32;34064;-63
2021/12/23 08:41:57;;;;;;;;;;;;;;;0.85;56.16;100773.16;4444962;32;34131;-64
2021/12/23 08:44:24;;;;;;;;;;;;;;;0.88;55.94;100776.00;4445088;32;33650;-64
2021/12/23 08:46:51;;;;;;;;;;;;;;;1.23;55.09;100785.31;4443421;32;34098;-64
2021/12/23 08:49:19;;;;;;;;;;;;;;;1.34;54.45;100779.59;4446337;32;34093;-64
2021/12/23 08:51:46;;;;;;;;;;;;;;;1.08;54.69;100780.53;4432532;32;34052;-64
2021/12/23 08:54:13;;;;;;;;;;;;;;;1.10;54.94;100778.09;4448930;32;33690;-64
2021/12/23 08:56:41;;;;;;;;;;;;;;;1.05;55.53;100769.13;4440080;32;34861;-64
2021/12/23 08:59:08;;;;;;;;;;;;;;;1.69;52.58;100770.22;4444177;32;33032;-64
2021/12/23 09:01:36;;;;;;;;;;;;;;;1.08;54.40;100771.94;4436274;32;32368;-64
2021/12/23 09:04:04;;;;;;;;;;;;;;;1.18;53.94;100772.13;4449351;32;34148;-64
2021/12/23 09:06:31;;;;;;;;;;;;;;;1.32;53.24;100770.91;4453333;32;34721;-63
2021/12/23 09:08:59;;;;;;;;;;;;;;;1.17;53.77;100765.19;4434015;32;33330;-65
2021/12/23 09:11:26;;;;;;;;;;;;;;;1.14;53.49;100758.16;4450944;32;34192;-64
2021/12/23 09:13:53;;;;;;;;;;;;;;;1.30;53.25;100746.88;4445080;32;33014;-64
2021/12/23 09:16:21;;;;;;;;;;;;;;;1.45;52.64;100750.00;4448474;32;34443;-64
2021/12/23 09:18:48;;;;;;;;;;;;;;;1.30;53.07;100752.00;4448137;32;33590;-65
2021/12/23 09:21:15;;;;;;;;;;;;;;;1.25;52.68;100748.97;4450292;32;34270;-63
2021/12/23 09:24:00;;;;;;;;;;;;;;;1.66;50.63;100743.47;4445243;32;34775;-64
2021/12/23 09:26:29;;;;;;;;;;;;;;;1.59;50.73;100733.47;4452005;32;34861;-63
2021/12/23 09:29:10;;;;;;;;;;;;;;;1.43;51.57;100728.53;4447171;32;34130;-64
2021/12/23 09:34:24;;;;;;;;;;;;;;;1.93;49.93;100715.44;4452005;32;35025;-65
2021/12/23 09:36:51;;;;;;;;;;;;;;;1.82;50.11;100715.19;4450791;32;33981;-64
2021/12/23 09:39:19;;;;;;;;;;;;;;;2.06;49.07;100707.25;4449366;32;33169;-64
2021/12/23 09:41:46;;;;;;;;;;;;;;;2.03;49.04;100699.31;4450993;32;34992;-65
2021/12/23 09:44:15;;;;;;;;;;;;;;;2.11;48.84;100711.13;4445091;32;34763;-65
2021/12/23 09:46:42;;;;;;;;;;;;;;;2.71;46.47;100702.91;4427368;32;32708;-64
2021/12/23 09:49:09;;;;;;;;;;;;;;;2.30;46.75;100702.63;4442371;32;33101;-64
2021/12/23 09:51:37;;;;;;;;;;;;;;;2.52;46.78;100698.69;4445454;32;33741;-64
2021/12/23 09:54:06;;;;;;;;;;;;;;;2.49;46.63;100694.94;4435721;32;34870;-64
2021/12/23 09:56:34;;;;;;;;;;;;;;;2.39;47.25;100707.66;4444175;32;33909;-64
2021/12/23 09:59:05;;;;;;;;;;;;;;;2.55;46.98;100706.66;4447223;32;33706;-64
2021/12/23 10:01:34;;;;;;;;;;;;;;;2.69;46.49;100704.44;4420751;32;33819;-65
2021/12/23 10:04:01;;;;;;;;;;;;;;;2.99;45.29;100688.34;4448401;32;33280;-64
2021/12/23 10:06:29;;;;;;;;;;;;;;;2.64;46.24;100685.22;4450983;32;34176;-63
2021/12/23 10:08:56;;;;;;;;;;;;;;;2.78;46.08;100674.53;4439428;32;33645;-64
2021/12/23 10:31:05;;;;;;;;;;;;;;;3.09;44.03;100647.47;4448700;32;33419;-64
2021/12/23 10:33:47;;;;;;;;;;;;;;;2.80;44.40;100642.34;4434347;32;34162;-64
2021/12/23 10:38:49;;;;;;;;;;;;;;;3.16;44.39;100620.72;4448370;32;34823;-64
2021/12/23 10:41:21;;;;;;;;;;;;;;;3.43;44.12;100614.53;4453028;32;33501;-63
2021/12/23 10:43:52;;;;;;;;;;;;;;;3.44;43.56;100611.22;4450139;32;34116;-64
2021/12/23 10:46:25;;;;;;;;;;;;;;;3.18;43.65;100605.50;4437930;32;34144;-64
2021/12/23 10:49:28;;;;;;;;;;;;;;;3.66;42.64;100596.00;4447000;32;33431;-64
2021/12/23 10:52:01;;;;;;;;;;;;;;;3.72;42.44;100583.72;4434361;32;32955;-64
2021/12/23 11:00:15;;;;;;;;;;;;;;;4.28;41.31;100578.06;4452697;32;32844;-64
2021/12/23 11:03:01;;;;;;;;;;;;;;;3.84;42.65;100578.72;4453711;32;33598;-63
2021/12/23 11:05:34;;;;;;;;;;;;;;;3.50;43.21;100562.19;4448948;32;33988;-63
2021/12/23 11:08:12;;;;;;;;;;;;;;;3.45;43.71;100548.09;4439123;32;33676;-64
2021/12/23 11:43:54;;;;;;;;;;;;;;;3.02;43.72;100477.87;4448187;32;33830;-64
2021/12/23 11:46:32;;;;;;;;;;;;;;;2.25;45.19;100478.88;4437154;32;31204;-63
2021/12/23 11:49:02;;;;;;;;;;;;;;;2.23;44.11;100470.19;4446427;32;33919;-64
2021/12/23 11:51:51;;;;;;;;;;;;;;;1.41;46.42;100469.62;4422213;32;784971;-63
2021/12/23 11:54:19;;;;;;;;;;;;;;;2.19;44.64;100463.03;4441589;32;34321;-63
2021/12/23 11:56:50;;;;;;;;;;;;;;;1.49;45.87;100450.84;4448621;32;33604;-64
2021/12/23 11:59:18;;;;;;;;;;;;;;;2.01;45.47;100458.06;4442741;32;33243;-64
2021/12/23 12:01:52;;;;;;;;;;;;;;;2.32;45.15;100450.56;4448536;32;35140;-64
2021/12/23 12:04:22;;;;;;;;;;;;;;;2.92;43.92;100443.81;4451669;32;34237;-64
2021/12/23 12:06:50;;;;;;;;;;;;;;;2.90;42.97;100440.22;4452017;32;33322;-63
2021/12/23 12:09:18;;;;;;;;;;;;;;;2.66;43.71;100433.91;4436011;32;34216;-64
2021/12/23 12:11:49;;;;;;;;;;;;;;;2.90;42.80;100435.12;4449301;32;34233;-63
2021/12/23 12:14:33;;;;;;;;;;;;;;;2.53;42.85;100431.03;4453114;32;33528;-64
2021/12/23 12:17:20;;;;;;;;;;;;;;;2.60;42.64;100427.37;4451400;32;33105;-64
2021/12/23 12:19:51;;;;;;;;;;;;;;;2.84;41.50;100419.25;4446740;32;34005;-63
2021/12/23 12:22:37;;;;;;;;;;;;;;;2.42;42.90;100412.22;4449727;32;34353;-63
2021/12/23 12:25:04;;;;;;;;;;;;;;;3.46;41.15;100411.59;4448573;32;33876;-63
2021/12/23 12:27:33;;;;;;;;;;;;;;;2.70;42.28;100419.72;4447160;32;33453;-64
2021/12/23 12:30:04;;;;;;;;;;;;;;;2.53;42.03;100408.94;4431692;32;34191;-63
2021/12/23 12:32:34;;;;;;;;;;;;;;;2.89;42.64;100405.16;4434895;32;32511;-64
2021/12/23 12:35:09;;;;;;;;;;;;;;;3.41;41.25;100406.06;4441597;32;34183;-63
2021/12/23 12:37:41;;;;;;;;;;;;;;;2.85;42.20;100402.22;4447789;32;33202;-65
2021/12/23 12:40:08;;;;;;;;;;;;;;;2.93;41.49;100402.09;4446662;32;34176;-64
2021/12/23 12:42:41;;;;;;;;;;;;;;;2.79;41.63;100394.94;4450582;32;35082;-65
2021/12/23 12:45:13;;;;;;;;;;;;;;;3.76;40.34;100397.81;4443988;32;34177;-66
2021/12/23 12:47:49;;;;;;;;;;;;;;;3.23;41.28;100402.87;4452368;32;34207;-64
2021/12/23 12:50:17;;;;;;;;;;;;;;;3.07;42.28;100402.34;4440915;32;34975;-64
2021/12/23 12:52:46;;;;;;;;;;;;;;;3.39;42.11;100399.94;4437160;32;34184;-64
2021/12/23 12:55:14;;;;;;;;;;;;;;;3.24;42.18;100386.75;4443540;32;33895;-64
2021/12/23 12:57:49;;;;;;;;;;;;;;;3.33;41.93;100384.94;4445798;32;33984;-64
2021/12/23 13:00:38;;;;;;;;;;;;;;;3.50;41.47;100370.97;4438967;32;34225;-65
2021/12/23 13:03:05;;;;;;;;;;;;;;;3.07;43.67;100371.66;4446462;32;33972;-64
2021/12/23 13:05:40;;;;;;;;;;;;;;;3.09;41.97;100359.88;4445775;32;34261;-64
2021/12/23 13:08:18;;;;;;;;;;;;;;;3.18;41.98;100360.62;4437024;32;34065;-63
2021/12/23 13:10:50;;;;;;;;;;;;;;;3.54;40.42;100346.50;4452144;32;34151;-64
2021/12/23 13:13:35;;;;;;;;;;;;;;;3.47;40.50;100345.09;4447888;32;33426;-64
2021/12/23 13:16:20;;;;;;;;;;;;;;;3.43;41.30;100349.84;4439970;32;34233;-64
2021/12/23 13:18:48;;;;;;;;;;;;;;;3.88;39.65;100339.88;4440205;32;33187;-63
2021/12/23 13:21:21;;;;;;;;;;;;;;;3.90;39.69;100337.41;4445663;32;34323;-64
2021/12/23 13:23:48;;;;;;;;;;;;;;;3.78;39.64;100331.31;4447623;32;34187;-64
2021/12/23 13:26:17;;;;;;;;;;;;;;;3.57;40.41;100323.69;4438634;32;33966;-64
2021/12/23 13:28:46;;;;;;;;;;;;;;;3.86;39.55;100326.06;4450992;32;32787;-64
2021/12/23 13:31:25;;;;;;;;;;;;;;;3.64;39.63;100330.22;4439576;32;34780;-64
2021/12/23 13:33:53;;;;;;;;;;;;;;;3.85;39.56;100328.47;4443659;32;34748;-64
2021/12/23 13:36:34;;;;;;;;;;;;;;;3.62;40.22;100319.84;4440622;32;34020;-64
2021/12/23 13:39:03;;;;;;;;;;;;;;;3.08;40.67;100322.25;4428168;32;33360;-64
2021/12/23 13:41:31;;;;;;;;;;;;;;;3.16;40.60;100310.97;4436426;32;33512;-64
2021/12/23 13:44:00;;;;;;;;;;;;;;;3.57;40.07;100299.75;4450053;32;34784;-64
2021/12/23 13:46:31;;;;;;;;;;;;;;;3.93;39.44;100291.53;4447466;32;34212;-64
2021/12/23 13:49:01;;;;;;;;;;;;;;;4.14;38.78;100302.59;4446735;32;33186;-64
2021/12/23 13:51:29;;;;;;;;;;;;;;;3.95;39.51;100313.06;4450883;32;33670;-64
2021/12/23 13:54:01;;;;;;;;;;;;;;;3.25;40.92;100316.88;4448600;32;35078;-65
2021/12/23 13:56:30;;;;;;;;;;;;;;;3.54;40.48;100310.66;4448862;32;34199;-64
2021/12/23 13:59:07;;;;;;;;;;;;;;;3.55;40.28;100299.62;4444676;32;34131;-63